Main page
METAR-TAF:

METAR-TAF

Airports :

Le Touquet – Côte d'Opale Airport

Le Touquet, France

latitude: 50-30-53N, longitude: 001-37-39E, elevation: 6 m

Current weather observation

The report was made 29 minutes ago, at 03:30 UTC
Wind 3 kt from the South/Southeast
Temperature 11°C
Humidity 100%
Pressure 1021 hPa
Visibility: 8000 m

METAR: LFAT 240330Z AUTO 15003KT 8000 NSC 11/11 Q1021

Time: 05:59 (03:59 UTC)

Forecast

The report was made 13 hours and 59 minutes ago, at 14:00 UTC
Forecast valid from 23 at 15 UTC to 23 at 24 UTC
Wind 7 kt from the West
Visibility 10 km or more
no clouds below 1500 m and no cumulonimbus
Temporary
from 23 at 15 UTC to 23 at 24 UTC
Broken clouds at a height of 1400 ft

TAF: LFAT 231400Z 2315/2324 27007KT CAVOK TEMPO 2315/2324 BKN014

Weather observations and forecasts of more than 4000 airports (METAR and TAF reports).

The available stations are represented by yellow and red dots on the map.

Hover mouse over dot to see the name of the station.

Then click to see weather observations and forecasts.

To change the map : click on the green buttons with a black cross to zoom in, on the green button with a dash to zoom out, or on the green arrows for adjacent maps.


METAR-TAF: